KRBG/RBG METAR and TAF weather

Enter ICAO airport designator
Station Type Date Time Source
KRBG METAR 2021/01/17 19:53 UTC NOAA

KRBG 171953Z AUTO 23004KT 10SM CLR 08/06 A3044 RMK AO2 SLP312 T00830061


Station Type Date Time Source
KRBG Decoded METAR 2021/01/17 19:53 UTC NOAA

ROSEBURG REGIONAL AIRPORT, OR, United States (KRBG) 43-14N 123-21W 154M
Jan 17, 2021 - 02:53 PM EST / 2021.01.17 1953 UTC
Wind: from the SW (230 degrees) at 5 MPH (4 KT):0
Visibility: 10 mile(s):0
Sky conditions: clear
Temperature: 46.9 F (8.3 C)
Dew Point: 43.0 F (6.1 C)
Relative Humidity: 86%
Pressure (altimeter): 30.44 in. Hg (1030 hPa)
ob: KRBG 171953Z AUTO 23004KT 10SM CLR 08/06 A3044 RMK AO2 SLP312 T00830061
cycle: 20

Station Type Date Time Source
KRBG TAF 2021/01/17 18:42 UTC NOAA

TAF KRBG 171741Z 1718/1818 VRB04KT P6SM SCT002 SCT080
FM172000 36006KT P6SM SCT200
FM180800 VRB02KT 1/2SM FG OVC002

Example: see airport list